Winchester, AR (71677)

8:03 AM CDT on July 25, 2014 (GMT -0500)
Monticello Municipal-Ellis (KLLQ) Elev 269 ft | 33.64 °N, 91.76 °W | Change Station

Current weather conditions updated 10 minutes ago

Clear
Clear
70 °F
Feels Like 70 °F
N
0
Wind Variable Wind from North

Today is forecast to be Warmer than yesterday.

Today
High -- | Low -- °F
--% Chance of Precip.
Yesterday
High -- | Low -- °F
Precip. -- in
6:13 AM 8:11 PM
Waning Crescent, 2% visible
Pressure 30.04 in
Visibility 10.0 miles
Clouds Clear
Dew Point 64 °F
Humidity 81%
Rainfall 0.00 in
Snow Depth Not available.
UV 1 out of 12
Pollen 4.50 out of 12
Air Quality Not available.
Flu Activity Not available.
METAR KLLQ 251253Z AUTO 00000KT 10SM CLR 21/18 A3005 RMK AO2 RAE00 SLP173 P0000 T02110178

More Conditions Fewer Conditions

Pressure 30.04 in
Visibility 10.0 miles
Clouds Clear
Dew Point 64 °F
Humidity 81%
Rainfall 0.00 in
Snow Depth Not available.
UV 1 out of 12
Pollen 4.50 out of 12
Air Quality Not available.
Flu Activity Not available.
METAR KLLQ 251253Z AUTO 00000KT 10SM CLR 21/18 A3005 RMK AO2 RAE00 SLP173 P0000 T02110178

More Conditions Fewer Conditions

10-Day Weather Forecast

Almanac

Astronomy

Jul. 25, 2014 Rise Set
Actual Time 6:13 AM CDT 8:11 PM CDT
Civil Twilight 5:45 AM CDT 8:39 PM CDT
Nautical Twilight 5:11 AM CDT 9:13 PM CDT
Astronomical Twilight 4:35 AM CDT 9:49 PM CDT
Moon 5:11 AM CDT 7:11 PM CDT
Length of Visible Light 14h 54m
Length of Day
13h 58m
Tomorrow will be 1m 24s shorter.
Waning Crescent, 2% of the Moon is Illuminated
Today
Waning Crescent
Jul 26
New
Aug 3
First Quarter
Aug 10
Full
Aug 17
Last Quarter

Today's Extremes

State Highs State Lows

Community

WunderPhotos

Upload Photos

1,737,316 photos uploaded!

Nearby

Snow Depth

Station Depth Elevation
No new snow has been reported.

Earthquake Activity

City Distance Mag. Time & Date
No recent earthquake activity has been reported nearby.
Minimum magnitude displayed is 2.5.

Coastal Water Temperatures

Place Temperature
No Stations Reporting

Nearby Weather Stations

Station Location Temp. Dew Point Humidity Wind Precip. Elev Updated Type
MesoWest GOULD , Gould, AR 60 °F - - North  at  - 0.00 in / hr 170 ft 4:35 AM CDT MADIS
RAWS UAM AR, Monticello, AR 63 °F 63 °F 100% East  at  1 mph 0.00 in / hr 183 ft 7:00 AM CDT MADIS
MesoWest DERMOT , Dermott, AR 67 °F - - North  at  - 0.00 in / hr 143 ft 6:45 AM CDT MADIS
Hwy 172, Monticello, AR 64.2 °F 54 °F 70% South  at  0.0 mph 0.00 in / hr 246 ft 7:59 AM CDT Normal
MesoWest GRADY , Grady, AR 61 °F - - North  at  - 0.00 in / hr 191 ft 4:20 AM CDT MADIS

Show More Stations Show Fewer Stations